sensor_id;sensor_type;location;lat;lon;timestamp;temperature;humidity
27544;DHT22;17996;51.056;3.656;2022-10-16T00:01:24;15.10;99.90
27544;DHT22;17996;51.056;3.656;2022-10-16T00:03:50;15.10;99.90
27544;DHT22;17996;51.056;3.656;2022-10-16T00:06:18;15.10;99.90
27544;DHT22;17996;51.056;3.656;2022-10-16T00:08:45;15.10;99.90
27544;DHT22;17996;51.056;3.656;2022-10-16T00:11:14;15.00;99.90
27544;DHT22;17996;51.056;3.656;2022-10-16T00:13:41;15.20;99.90
27544;DHT22;17996;51.056;3.656;2022-10-16T00:16:08;15.00;99.90
27544;DHT22;17996;51.056;3.656;2022-10-16T00:18:35;14.90;99.90
27544;DHT22;17996;51.056;3.656;2022-10-16T00:21:07;14.90;99.90
27544;DHT22;17996;51.056;3.656;2022-10-16T00:23:33;14.90;99.90
27544;DHT22;17996;51.056;3.656;2022-10-16T00:26:04;14.80;99.90
27544;DHT22;17996;51.056;3.656;2022-10-16T00:28:31;14.80;99.90
27544;DHT22;17996;51.056;3.656;2022-10-16T00:30:57;14.80;99.90
27544;DHT22;17996;51.056;3.656;2022-10-16T00:33:23;14.70;99.90
27544;DHT22;17996;51.056;3.656;2022-10-16T00:35:48;14.80;99.90
27544;DHT22;17996;51.056;3.656;2022-10-16T00:38:14;14.70;99.90
27544;DHT22;17996;51.056;3.656;2022-10-16T00:40:40;14.60;99.90
27544;DHT22;17996;51.056;3.656;2022-10-16T00:43:14;14.80;99.90
27544;DHT22;17996;51.056;3.656;2022-10-16T00:45:57;14.60;99.90
27544;DHT22;17996;51.056;3.656;2022-10-16T00:48:22;14.60;99.90
27544;DHT22;17996;51.056;3.656;2022-10-16T00:50:48;14.80;99.90
27544;DHT22;17996;51.056;3.656;2022-10-16T00:53:14;14.70;99.90
27544;DHT22;17996;51.056;3.656;2022-10-16T00:55:40;14.60;99.90
27544;DHT22;17996;51.056;3.656;2022-10-16T00:58:06;14.70;99.90
27544;DHT22;17996;51.056;3.656;2022-10-16T01:00:32;14.60;99.90
27544;DHT22;17996;51.056;3.656;2022-10-16T01:02:59;14.60;99.90
27544;DHT22;17996;51.056;3.656;2022-10-16T01:05:33;14.60;99.90
27544;DHT22;17996;51.056;3.656;2022-10-16T01:08:22;14.70;99.90
27544;DHT22;17996;51.056;3.656;2022-10-16T01:10:57;14.80;99.90
27544;DHT22;17996;51.056;3.656;2022-10-16T01:13:30;14.60;99.90
27544;DHT22;17996;51.056;3.656;2022-10-16T01:18:39;14.50;99.90
27544;DHT22;17996;51.056;3.656;2022-10-16T01:21:11;14.50;99.90
27544;DHT22;17996;51.056;3.656;2022-10-16T01:29:15;14.50;99.90
27544;DHT22;17996;51.056;3.656;2022-10-16T01:31:50;14.50;99.90
27544;DHT22;17996;51.056;3.656;2022-10-16T01:34:25;14.50;99.90
27544;DHT22;17996;51.056;3.656;2022-10-16T01:37:02;14.50;99.90
27544;DHT22;17996;51.056;3.656;2022-10-16T01:39:33;14.50;99.90
27544;DHT22;17996;51.056;3.656;2022-10-16T01:42:31;14.50;99.90
27544;DHT22;17996;51.056;3.656;2022-10-16T01:44:56;14.40;99.90
27544;DHT22;17996;51.056;3.656;2022-10-16T01:47:25;14.40;99.90
27544;DHT22;17996;51.056;3.656;2022-10-16T01:49:51;14.60;99.90
27544;DHT22;17996;51.056;3.656;2022-10-16T01:52:21;14.40;99.90
27544;DHT22;17996;51.056;3.656;2022-10-16T01:54:50;14.40;99.90
27544;DHT22;17996;51.056;3.656;2022-10-16T01:57:20;14.40;99.90
27544;DHT22;17996;51.056;3.656;2022-10-16T01:59:50;14.40;99.90
27544;DHT22;17996;51.056;3.656;2022-10-16T02:02:18;14.40;99.90
27544;DHT22;17996;51.056;3.656;2022-10-16T02:05:10;14.40;99.90
27544;DHT22;17996;51.056;3.656;2022-10-16T02:07:33;14.40;99.90
27544;DHT22;17996;51.056;3.656;2022-10-16T02:10:00;14.50;99.90
27544;DHT22;17996;51.056;3.656;2022-10-16T02:12:32;14.40;99.90
27544;DHT22;17996;51.056;3.656;2022-10-16T02:14:59;14.50;99.90
27544;DHT22;17996;51.056;3.656;2022-10-16T02:17:25;14.40;99.90
27544;DHT22;17996;51.056;3.656;2022-10-16T02:19:52;14.40;99.90
27544;DHT22;17996;51.056;3.656;2022-10-16T02:22:30;14.40;99.90
27544;DHT22;17996;51.056;3.656;2022-10-16T02:25:08;14.40;99.90
27544;DHT22;17996;51.056;3.656;2022-10-16T02:30:32;14.40;99.90
27544;DHT22;17996;51.056;3.656;2022-10-16T02:33:00;14.40;99.90
27544;DHT22;17996;51.056;3.656;2022-10-16T02:35:27;14.30;99.90
27544;DHT22;17996;51.056;3.656;2022-10-16T02:37:54;14.30;99.90
27544;DHT22;17996;51.056;3.656;2022-10-16T02:40:21;14.30;99.90
27544;DHT22;17996;51.056;3.656;2022-10-16T02:42:50;14.40;99.90
27544;DHT22;17996;51.056;3.656;2022-10-16T02:45:16;14.40;99.90
27544;DHT22;17996;51.056;3.656;2022-10-16T02:47:42;14.40;99.90
27544;DHT22;17996;51.056;3.656;2022-10-16T02:50:08;14.40;99.90
27544;DHT22;17996;51.056;3.656;2022-10-16T02:52:33;14.40;99.90
27544;DHT22;17996;51.056;3.656;2022-10-16T02:54:59;14.40;99.90
27544;DHT22;17996;51.056;3.656;2022-10-16T02:57:25;14.50;99.90
27544;DHT22;17996;51.056;3.656;2022-10-16T02:59:50;14.30;99.90
27544;DHT22;17996;51.056;3.656;2022-10-16T03:02:16;14.50;99.90
27544;DHT22;17996;51.056;3.656;2022-10-16T03:04:43;14.30;99.90
27544;DHT22;17996;51.056;3.656;2022-10-16T03:07:08;14.30;99.90
27544;DHT22;17996;51.056;3.656;2022-10-16T03:09:34;14.30;99.90
27544;DHT22;17996;51.056;3.656;2022-10-16T03:12:00;14.30;99.90
27544;DHT22;17996;51.056;3.656;2022-10-16T03:14:26;14.30;99.90
27544;DHT22;17996;51.056;3.656;2022-10-16T03:16:51;14.30;99.90
27544;DHT22;17996;51.056;3.656;2022-10-16T03:19:17;14.30;99.90
27544;DHT22;17996;51.056;3.656;2022-10-16T03:21:43;14.30;99.90
27544;DHT22;17996;51.056;3.656;2022-10-16T03:24:08;14.30;99.90
27544;DHT22;17996;51.056;3.656;2022-10-16T03:26:34;14.30;99.90
27544;DHT22;17996;51.056;3.656;2022-10-16T03:29:00;14.30;99.90
27544;DHT22;17996;51.056;3.656;2022-10-16T03:31:27;14.30;99.90
27544;DHT22;17996;51.056;3.656;2022-10-16T03:33:53;14.30;99.90
27544;DHT22;17996;51.056;3.656;2022-10-16T03:36:19;14.30;99.90
27544;DHT22;17996;51.056;3.656;2022-10-16T03:38:44;14.20;99.90
27544;DHT22;17996;51.056;3.656;2022-10-16T03:41:10;14.20;99.90
27544;DHT22;17996;51.056;3.656;2022-10-16T03:43:36;14.20;99.90
27544;DHT22;17996;51.056;3.656;2022-10-16T03:46:01;14.20;99.90
27544;DHT22;17996;51.056;3.656;2022-10-16T03:48:27;14.20;99.90
27544;DHT22;17996;51.056;3.656;2022-10-16T03:50:53;14.10;99.90
27544;DHT22;17996;51.056;3.656;2022-10-16T03:53:18;14.10;99.90
27544;DHT22;17996;51.056;3.656;2022-10-16T03:55:44;14.10;99.90
27544;DHT22;17996;51.056;3.656;2022-10-16T03:58:10;14.10;99.90
27544;DHT22;17996;51.056;3.656;2022-10-16T04:00:43;14.00;99.90
27544;DHT22;17996;51.056;3.656;2022-10-16T04:03:09;14.00;99.90
27544;DHT22;17996;51.056;3.656;2022-10-16T04:05:35;14.00;99.90
27544;DHT22;17996;51.056;3.656;2022-10-16T04:08:00;14.00;99.90
27544;DHT22;17996;51.056;3.656;2022-10-16T04:10:26;14.00;99.90
27544;DHT22;17996;51.056;3.656;2022-10-16T04:12:52;14.00;99.90
27544;DHT22;17996;51.056;3.656;2022-10-16T04:15:20;14.00;99.90
27544;DHT22;17996;51.056;3.656;2022-10-16T04:17:45;14.00;99.90
27544;DHT22;17996;51.056;3.656;2022-10-16T04:20:11;14.00;99.90
27544;DHT22;17996;51.056;3.656;2022-10-16T04:22:37;14.00;99.90
27544;DHT22;17996;51.056;3.656;2022-10-16T04:25:03;13.90;99.90
27544;DHT22;17996;51.056;3.656;2022-10-16T04:27:29;13.90;99.90
27544;DHT22;17996;51.056;3.656;2022-10-16T04:29:59;13.90;99.90
27544;DHT22;17996;51.056;3.656;2022-10-16T04:32:25;13.90;99.90
27544;DHT22;17996;51.056;3.656;2022-10-16T04:34:51;13.90;99.90
27544;DHT22;17996;51.056;3.656;2022-10-16T04:37:17;14.10;99.90
27544;DHT22;17996;51.056;3.656;2022-10-16T04:39:42;13.90;99.90
27544;DHT22;17996;51.056;3.656;2022-10-16T04:42:09;14.10;99.90
27544;DHT22;17996;51.056;3.656;2022-10-16T04:44:34;13.90;99.90
27544;DHT22;17996;51.056;3.656;2022-10-16T04:47:00;13.90;99.90
27544;DHT22;17996;51.056;3.656;2022-10-16T04:49:26;13.90;99.90
27544;DHT22;17996;51.056;3.656;2022-10-16T04:51:52;13.90;99.90
27544;DHT22;17996;51.056;3.656;2022-10-16T04:54:17;13.90;99.90
27544;DHT22;17996;51.056;3.656;2022-10-16T04:56:43;13.90;99.90
27544;DHT22;17996;51.056;3.656;2022-10-16T04:59:15;13.90;99.90
27544;DHT22;17996;51.056;3.656;2022-10-16T05:01:41;14.00;99.90
27544;DHT22;17996;51.056;3.656;2022-10-16T05:04:07;13.90;99.90
27544;DHT22;17996;51.056;3.656;2022-10-16T05:06:32;13.90;99.90
27544;DHT22;17996;51.056;3.656;2022-10-16T05:08:58;13.90;99.90
27544;DHT22;17996;51.056;3.656;2022-10-16T05:11:24;14.10;99.90
27544;DHT22;17996;51.056;3.656;2022-10-16T05:13:49;14.00;99.90
27544;DHT22;17996;51.056;3.656;2022-10-16T05:16:15;14.00;99.90
27544;DHT22;17996;51.056;3.656;2022-10-16T05:18:41;14.30;99.90
27544;DHT22;17996;51.056;3.656;2022-10-16T05:21:06;14.30;99.90
27544;DHT22;17996;51.056;3.656;2022-10-16T05:23:32;14.10;99.90
27544;DHT22;17996;51.056;3.656;2022-10-16T05:25:58;14.20;99.90
27544;DHT22;17996;51.056;3.656;2022-10-16T05:28:26;14.30;99.90
27544;DHT22;17996;51.056;3.656;2022-10-16T05:30:52;14.30;99.90
27544;DHT22;17996;51.056;3.656;2022-10-16T05:33:20;14.30;99.90
27544;DHT22;17996;51.056;3.656;2022-10-16T05:35:46;14.30;99.90
27544;DHT22;17996;51.056;3.656;2022-10-16T05:38:12;14.50;99.90
27544;DHT22;17996;51.056;3.656;2022-10-16T05:40:38;14.40;99.90
27544;DHT22;17996;51.056;3.656;2022-10-16T05:43:04;14.30;99.90
27544;DHT22;17996;51.056;3.656;2022-10-16T05:45:29;14.30;99.90
27544;DHT22;17996;51.056;3.656;2022-10-16T05:47:55;14.30;99.90
27544;DHT22;17996;51.056;3.656;2022-10-16T05:50:21;14.30;99.90
27544;DHT22;17996;51.056;3.656;2022-10-16T05:52:46;14.20;99.90
27544;DHT22;17996;51.056;3.656;2022-10-16T05:55:12;14.10;99.90
27544;DHT22;17996;51.056;3.656;2022-10-16T05:57:38;14.20;99.90
27544;DHT22;17996;51.056;3.656;2022-10-16T06:00:04;14.10;99.90
27544;DHT22;17996;51.056;3.656;2022-10-16T06:02:30;14.10;99.90
27544;DHT22;17996;51.056;3.656;2022-10-16T06:04:56;14.10;99.90
27544;DHT22;17996;51.056;3.656;2022-10-16T06:07:22;14.00;99.90
27544;DHT22;17996;51.056;3.656;2022-10-16T06:09:49;14.00;99.90
27544;DHT22;17996;51.056;3.656;2022-10-16T06:12:15;14.00;99.90
27544;DHT22;17996;51.056;3.656;2022-10-16T06:14:41;14.00;99.90
27544;DHT22;17996;51.056;3.656;2022-10-16T06:17:07;13.90;99.90
27544;DHT22;17996;51.056;3.656;2022-10-16T06:19:32;14.10;99.90
27544;DHT22;17996;51.056;3.656;2022-10-16T06:21:58;14.10;99.90
27544;DHT22;17996;51.056;3.656;2022-10-16T06:24:24;14.10;99.90
27544;DHT22;17996;51.056;3.656;2022-10-16T06:26:50;14.00;99.90
27544;DHT22;17996;51.056;3.656;2022-10-16T06:29:16;14.30;99.90
27544;DHT22;17996;51.056;3.656;2022-10-16T06:31:41;14.10;99.90
27544;DHT22;17996;51.056;3.656;2022-10-16T06:34:09;14.10;99.90
27544;DHT22;17996;51.056;3.656;2022-10-16T06:36:37;14.20;99.90
27544;DHT22;17996;51.056;3.656;2022-10-16T06:39:04;14.10;99.90
27544;DHT22;17996;51.056;3.656;2022-10-16T06:41:30;14.10;99.90
27544;DHT22;17996;51.056;3.656;2022-10-16T06:43:56;14.10;99.90
27544;DHT22;17996;51.056;3.656;2022-10-16T06:46:23;14.10;99.90
27544;DHT22;17996;51.056;3.656;2022-10-16T06:48:50;14.10;99.90
27544;DHT22;17996;51.056;3.656;2022-10-16T06:51:21;14.10;99.90
27544;DHT22;17996;51.056;3.656;2022-10-16T06:53:49;14.30;99.90
27544;DHT22;17996;51.056;3.656;2022-10-16T06:56:17;14.00;99.90
27544;DHT22;17996;51.056;3.656;2022-10-16T06:58:43;14.10;99.90
27544;DHT22;17996;51.056;3.656;2022-10-16T07:01:10;14.10;99.90
27544;DHT22;17996;51.056;3.656;2022-10-16T07:03:37;14.10;99.90
27544;DHT22;17996;51.056;3.656;2022-10-16T07:06:05;14.10;99.90
27544;DHT22;17996;51.056;3.656;2022-10-16T07:08:33;14.10;99.90
27544;DHT22;17996;51.056;3.656;2022-10-16T07:11:03;14.10;99.90
27544;DHT22;17996;51.056;3.656;2022-10-16T07:13:31;14.10;99.90
27544;DHT22;17996;51.056;3.656;2022-10-16T07:15:58;14.10;99.90
27544;DHT22;17996;51.056;3.656;2022-10-16T07:18:30;14.10;99.90
27544;DHT22;17996;51.056;3.656;2022-10-16T07:21:04;14.20;99.90
27544;DHT22;17996;51.056;3.656;2022-10-16T07:23:30;14.20;99.90
27544;DHT22;17996;51.056;3.656;2022-10-16T07:25:56;14.40;99.90
27544;DHT22;17996;51.056;3.656;2022-10-16T07:28:22;14.20;99.90
27544;DHT22;17996;51.056;3.656;2022-10-16T07:30:48;14.30;99.90
27544;DHT22;17996;51.056;3.656;2022-10-16T07:33:14;14.20;99.90
27544;DHT22;17996;51.056;3.656;2022-10-16T07:35:51;14.20;99.90
27544;DHT22;17996;51.056;3.656;2022-10-16T07:38:17;14.20;99.90
27544;DHT22;17996;51.056;3.656;2022-10-16T07:40:44;14.20;99.90
27544;DHT22;17996;51.056;3.656;2022-10-16T07:43:09;14.30;99.90
27544;DHT22;17996;51.056;3.656;2022-10-16T07:45:35;14.30;99.90
27544;DHT22;17996;51.056;3.656;2022-10-16T07:48:01;14.40;99.90
27544;DHT22;17996;51.056;3.656;2022-10-16T07:50:27;14.40;99.90
27544;DHT22;17996;51.056;3.656;2022-10-16T07:52:53;14.40;99.90
27544;DHT22;17996;51.056;3.656;2022-10-16T07:55:19;14.40;99.90
27544;DHT22;17996;51.056;3.656;2022-10-16T07:57:44;14.50;99.90
27544;DHT22;17996;51.056;3.656;2022-10-16T08:00:10;14.50;99.90
27544;DHT22;17996;51.056;3.656;2022-10-16T08:02:39;14.50;99.90
27544;DHT22;17996;51.056;3.656;2022-10-16T08:05:06;14.60;99.90
27544;DHT22;17996;51.056;3.656;2022-10-16T08:07:32;14.60;99.90
27544;DHT22;17996;51.056;3.656;2022-10-16T08:09:57;14.60;99.90
27544;DHT22;17996;51.056;3.656;2022-10-16T08:12:25;14.60;99.90
27544;DHT22;17996;51.056;3.656;2022-10-16T08:14:50;14.60;99.90
27544;DHT22;17996;51.056;3.656;2022-10-16T08:17:16;14.60;99.90
27544;DHT22;17996;51.056;3.656;2022-10-16T08:19:46;14.60;99.90
27544;DHT22;17996;51.056;3.656;2022-10-16T08:22:12;14.70;99.90
27544;DHT22;17996;51.056;3.656;2022-10-16T08:24:37;14.60;99.90
27544;DHT22;17996;51.056;3.656;2022-10-16T08:27:03;14.80;99.90
27544;DHT22;17996;51.056;3.656;2022-10-16T08:29:28;14.70;99.90
27544;DHT22;17996;51.056;3.656;2022-10-16T08:31:54;14.70;99.90
27544;DHT22;17996;51.056;3.656;2022-10-16T08:34:20;14.70;99.90
27544;DHT22;17996;51.056;3.656;2022-10-16T08:36:46;14.60;99.90
27544;DHT22;17996;51.056;3.656;2022-10-16T08:39:11;14.70;99.90
27544;DHT22;17996;51.056;3.656;2022-10-16T08:47:56;14.80;99.90
27544;DHT22;17996;51.056;3.656;2022-10-16T08:50:30;14.90;99.90
27544;DHT22;17996;51.056;3.656;2022-10-16T08:52:57;14.90;99.90
27544;DHT22;17996;51.056;3.656;2022-10-16T08:55:44;15.00;99.90
27544;DHT22;17996;51.056;3.656;2022-10-16T08:58:16;15.00;99.90
27544;DHT22;17996;51.056;3.656;2022-10-16T09:00:45;15.00;99.90
27544;DHT22;17996;51.056;3.656;2022-10-16T09:14:39;15.30;99.90
27544;DHT22;17996;51.056;3.656;2022-10-16T09:22:41;15.60;99.90
27544;DHT22;17996;51.056;3.656;2022-10-16T09:25:18;15.60;99.90
27544;DHT22;17996;51.056;3.656;2022-10-16T09:27:48;15.70;99.90
27544;DHT22;17996;51.056;3.656;2022-10-16T09:30:17;15.80;99.90
27544;DHT22;17996;51.056;3.656;2022-10-16T09:32:44;16.00;99.90
27544;DHT22;17996;51.056;3.656;2022-10-16T09:35:19;16.00;99.90
27544;DHT22;17996;51.056;3.656;2022-10-16T09:37:48;16.00;99.90
27544;DHT22;17996;51.056;3.656;2022-10-16T09:40:38;16.10;99.90
27544;DHT22;17996;51.056;3.656;2022-10-16T09:46:27;16.20;99.90
27544;DHT22;17996;51.056;3.656;2022-10-16T09:49:22;16.20;99.90
27544;DHT22;17996;51.056;3.656;2022-10-16T09:51:50;16.30;99.90
27544;DHT22;17996;51.056;3.656;2022-10-16T09:54:16;16.30;99.90
27544;DHT22;17996;51.056;3.656;2022-10-16T09:56:43;16.40;99.90
27544;DHT22;17996;51.056;3.656;2022-10-16T09:59:16;16.50;99.90
27544;DHT22;17996;51.056;3.656;2022-10-16T10:01:47;16.50;99.90
27544;DHT22;17996;51.056;3.656;2022-10-16T10:04:14;16.60;99.90
27544;DHT22;17996;51.056;3.656;2022-10-16T10:06:52;16.80;99.90
27544;DHT22;17996;51.056;3.656;2022-10-16T10:09:37;16.90;99.90
27544;DHT22;17996;51.056;3.656;2022-10-16T10:12:04;17.10;99.90
27544;DHT22;17996;51.056;3.656;2022-10-16T10:14:44;17.30;99.90
27544;DHT22;17996;51.056;3.656;2022-10-16T10:17:18;17.30;99.90
27544;DHT22;17996;51.056;3.656;2022-10-16T10:19:50;17.50;99.90
27544;DHT22;17996;51.056;3.656;2022-10-16T10:30:58;17.70;99.90
27544;DHT22;17996;51.056;3.656;2022-10-16T10:36:30;17.80;99.90
27544;DHT22;17996;51.056;3.656;2022-10-16T10:39:05;17.80;99.90
27544;DHT22;17996;51.056;3.656;2022-10-16T10:50:02;18.30;99.90
27544;DHT22;17996;51.056;3.656;2022-10-16T10:55:27;18.50;99.90
27544;DHT22;17996;51.056;3.656;2022-10-16T11:03:41;18.60;99.90
27544;DHT22;17996;51.056;3.656;2022-10-16T11:09:13;18.60;99.90
27544;DHT22;17996;51.056;3.656;2022-10-16T11:11:45;18.50;99.90
27544;DHT22;17996;51.056;3.656;2022-10-16T11:17:16;18.20;99.90
27544;DHT22;17996;51.056;3.656;2022-10-16T11:22:33;18.20;99.90
27544;DHT22;17996;51.056;3.656;2022-10-16T11:25:13;18.10;99.90
27544;DHT22;17996;51.056;3.656;2022-10-16T11:30:23;18.20;99.90
27544;DHT22;17996;51.056;3.656;2022-10-16T11:38:37;18.30;99.90
27544;DHT22;17996;51.056;3.656;2022-10-16T11:41:29;18.30;99.90
27544;DHT22;17996;51.056;3.656;2022-10-16T11:46:36;18.30;99.90
27544;DHT22;17996;51.056;3.656;2022-10-16T11:49:13;18.30;99.90
27544;DHT22;17996;51.056;3.656;2022-10-16T11:51:43;18.40;99.90
27544;DHT22;17996;51.056;3.656;2022-10-16T11:56:48;18.50;99.90
27544;DHT22;17996;51.056;3.656;2022-10-16T11:59:32;18.50;99.90
27544;DHT22;17996;51.056;3.656;2022-10-16T12:07:50;19.00;99.90
27544;DHT22;17996;51.056;3.656;2022-10-16T12:10:27;19.10;99.90
27544;DHT22;17996;51.056;3.656;2022-10-16T12:12:54;19.10;99.90
27544;DHT22;17996;51.056;3.656;2022-10-16T12:15:31;19.20;99.90
27544;DHT22;17996;51.056;3.656;2022-10-16T12:17:56;19.40;99.90
27544;DHT22;17996;51.056;3.656;2022-10-16T12:20:26;19.60;99.90
27544;DHT22;17996;51.056;3.656;2022-10-16T12:23:02;19.70;99.90
27544;DHT22;17996;51.056;3.656;2022-10-16T12:25:33;19.60;99.90
27544;DHT22;17996;51.056;3.656;2022-10-16T12:28:19;19.50;99.90
27544;DHT22;17996;51.056;3.656;2022-10-16T12:30:59;19.50;99.90
27544;DHT22;17996;51.056;3.656;2022-10-16T12:33:58;19.40;99.90
27544;DHT22;17996;51.056;3.656;2022-10-16T12:36:32;19.30;99.90
27544;DHT22;17996;51.056;3.656;2022-10-16T12:38:58;19.20;99.90
27544;DHT22;17996;51.056;3.656;2022-10-16T12:41:26;19.30;99.90
27544;DHT22;17996;51.056;3.656;2022-10-16T12:43:53;19.30;99.90
27544;DHT22;17996;51.056;3.656;2022-10-16T12:46:21;19.30;99.90
27544;DHT22;17996;51.056;3.656;2022-10-16T12:48:47;19.30;99.90
27544;DHT22;17996;51.056;3.656;2022-10-16T12:51:35;19.30;99.90
27544;DHT22;17996;51.056;3.656;2022-10-16T12:54:12;19.20;99.90
27544;DHT22;17996;51.056;3.656;2022-10-16T13:10:24;19.30;99.90
27544;DHT22;17996;51.056;3.656;2022-10-16T13:15:57;19.70;99.90
27544;DHT22;17996;51.056;3.656;2022-10-16T13:18:40;19.70;99.90
27544;DHT22;17996;51.056;3.656;2022-10-16T13:21:18;19.70;99.90
27544;DHT22;17996;51.056;3.656;2022-10-16T13:26:50;19.60;99.90
27544;DHT22;17996;51.056;3.656;2022-10-16T13:29:18;19.50;99.90
27544;DHT22;17996;51.056;3.656;2022-10-16T13:31:44;19.50;99.90
27544;DHT22;17996;51.056;3.656;2022-10-16T13:34:20;19.50;99.90
27544;DHT22;17996;51.056;3.656;2022-10-16T13:36:49;19.70;99.90
27544;DHT22;17996;51.056;3.656;2022-10-16T13:39:24;19.80;99.90
27544;DHT22;17996;51.056;3.656;2022-10-16T13:42:10;20.00;99.90
27544;DHT22;17996;51.056;3.656;2022-10-16T13:44:49;20.20;99.90
27544;DHT22;17996;51.056;3.656;2022-10-16T13:47:20;20.30;99.90
27544;DHT22;17996;51.056;3.656;2022-10-16T13:49:46;20.30;99.90
27544;DHT22;17996;51.056;3.656;2022-10-16T13:52:20;20.30;99.90
27544;DHT22;17996;51.056;3.656;2022-10-16T13:54:47;20.30;99.90
27544;DHT22;17996;51.056;3.656;2022-10-16T13:57:17;20.20;99.90
27544;DHT22;17996;51.056;3.656;2022-10-16T13:59:43;20.20;99.90
27544;DHT22;17996;51.056;3.656;2022-10-16T14:04:47;20.10;99.90
27544;DHT22;17996;51.056;3.656;2022-10-16T14:07:20;19.90;99.90
27544;DHT22;17996;51.056;3.656;2022-10-16T14:09:50;19.80;99.90
27544;DHT22;17996;51.056;3.656;2022-10-16T14:12:17;19.70;99.90
27544;DHT22;17996;51.056;3.656;2022-10-16T14:14:52;19.70;99.90
27544;DHT22;17996;51.056;3.656;2022-10-16T14:17:23;19.70;99.90
27544;DHT22;17996;51.056;3.656;2022-10-16T14:19:51;19.70;99.90
27544;DHT22;17996;51.056;3.656;2022-10-16T14:22:42;19.80;99.90
27544;DHT22;17996;51.056;3.656;2022-10-16T14:25:25;19.80;99.90
27544;DHT22;17996;51.056;3.656;2022-10-16T14:30:26;19.70;99.90
27544;DHT22;17996;51.056;3.656;2022-10-16T14:35:32;19.60;99.90
27544;DHT22;17996;51.056;3.656;2022-10-16T14:37:59;19.50;99.90
27544;DHT22;17996;51.056;3.656;2022-10-16T14:40:29;19.50;99.90
27544;DHT22;17996;51.056;3.656;2022-10-16T14:42:55;19.40;99.90
27544;DHT22;17996;51.056;3.656;2022-10-16T14:45:27;19.40;99.90
27544;DHT22;17996;51.056;3.656;2022-10-16T14:47:58;19.30;99.90
27544;DHT22;17996;51.056;3.656;2022-10-16T14:50:25;19.30;99.90
27544;DHT22;17996;51.056;3.656;2022-10-16T14:52:50;19.20;99.90
27544;DHT22;17996;51.056;3.656;2022-10-16T14:55:17;19.10;99.90
27544;DHT22;17996;51.056;3.656;2022-10-16T14:57:44;19.00;99.90
27544;DHT22;17996;51.056;3.656;2022-10-16T15:00:19;19.00;99.90
27544;DHT22;17996;51.056;3.656;2022-10-16T15:02:46;19.00;99.90
27544;DHT22;17996;51.056;3.656;2022-10-16T15:07:43;18.90;99.90
27544;DHT22;17996;51.056;3.656;2022-10-16T15:10:10;18.80;99.90
27544;DHT22;17996;51.056;3.656;2022-10-16T15:12:35;18.80;99.90
27544;DHT22;17996;51.056;3.656;2022-10-16T15:15:01;18.80;99.90
27544;DHT22;17996;51.056;3.656;2022-10-16T15:17:27;18.70;99.90
27544;DHT22;17996;51.056;3.656;2022-10-16T15:19:52;18.70;99.90
27544;DHT22;17996;51.056;3.656;2022-10-16T15:22:18;18.70;99.90
27544;DHT22;17996;51.056;3.656;2022-10-16T15:24:44;18.70;99.90
27544;DHT22;17996;51.056;3.656;2022-10-16T15:27:09;18.70;99.90
27544;DHT22;17996;51.056;3.656;2022-10-16T15:29:35;18.60;99.90
27544;DHT22;17996;51.056;3.656;2022-10-16T15:32:01;18.60;99.90
27544;DHT22;17996;51.056;3.656;2022-10-16T15:34:27;18.60;99.90
27544;DHT22;17996;51.056;3.656;2022-10-16T15:36:52;18.50;99.90
27544;DHT22;17996;51.056;3.656;2022-10-16T15:39:21;18.50;99.90
27544;DHT22;17996;51.056;3.656;2022-10-16T15:41:47;18.50;99.90
27544;DHT22;17996;51.056;3.656;2022-10-16T15:44:19;18.40;99.90
27544;DHT22;17996;51.056;3.656;2022-10-16T15:46:46;18.30;99.90
27544;DHT22;17996;51.056;3.656;2022-10-16T15:49:12;18.30;99.90
27544;DHT22;17996;51.056;3.656;2022-10-16T15:51:40;18.20;99.90
27544;DHT22;17996;51.056;3.656;2022-10-16T15:54:06;18.20;99.90
27544;DHT22;17996;51.056;3.656;2022-10-16T15:56:31;18.20;99.90
27544;DHT22;17996;51.056;3.656;2022-10-16T15:58:59;18.10;99.90
27544;DHT22;17996;51.056;3.656;2022-10-16T16:01:26;18.10;99.90
27544;DHT22;17996;51.056;3.656;2022-10-16T16:03:55;18.00;99.90
27544;DHT22;17996;51.056;3.656;2022-10-16T16:06:22;18.00;99.90
27544;DHT22;17996;51.056;3.656;2022-10-16T16:08:50;18.00;99.90
27544;DHT22;17996;51.056;3.656;2022-10-16T16:11:16;17.90;99.90
27544;DHT22;17996;51.056;3.656;2022-10-16T16:13:42;17.90;99.90
27544;DHT22;17996;51.056;3.656;2022-10-16T16:16:10;17.90;99.90
27544;DHT22;17996;51.056;3.656;2022-10-16T16:18:37;17.90;99.90
27544;DHT22;17996;51.056;3.656;2022-10-16T16:21:03;17.90;99.90
27544;DHT22;17996;51.056;3.656;2022-10-16T16:23:28;17.90;99.90
27544;DHT22;17996;51.056;3.656;2022-10-16T16:26:08;17.80;99.90
27544;DHT22;17996;51.056;3.656;2022-10-16T16:28:35;17.80;99.90
27544;DHT22;17996;51.056;3.656;2022-10-16T16:31:01;17.80;99.90
27544;DHT22;17996;51.056;3.656;2022-10-16T16:33:27;17.80;99.90
27544;DHT22;17996;51.056;3.656;2022-10-16T16:35:57;17.70;99.90
27544;DHT22;17996;51.056;3.656;2022-10-16T16:38:23;17.70;99.90
27544;DHT22;17996;51.056;3.656;2022-10-16T16:40:49;17.70;99.90
27544;DHT22;17996;51.056;3.656;2022-10-16T16:43:15;17.60;99.90
27544;DHT22;17996;51.056;3.656;2022-10-16T16:45:41;17.60;99.90
27544;DHT22;17996;51.056;3.656;2022-10-16T16:48:06;17.60;99.90
27544;DHT22;17996;51.056;3.656;2022-10-16T16:50:35;17.60;99.90
27544;DHT22;17996;51.056;3.656;2022-10-16T16:53:01;17.60;99.90
27544;DHT22;17996;51.056;3.656;2022-10-16T16:55:27;17.50;99.90
27544;DHT22;17996;51.056;3.656;2022-10-16T16:57:52;17.50;99.90
27544;DHT22;17996;51.056;3.656;2022-10-16T17:00:18;17.50;99.90
27544;DHT22;17996;51.056;3.656;2022-10-16T17:02:43;17.50;99.90
27544;DHT22;17996;51.056;3.656;2022-10-16T17:05:13;17.50;99.90
27544;DHT22;17996;51.056;3.656;2022-10-16T17:07:38;17.50;99.90
27544;DHT22;17996;51.056;3.656;2022-10-16T17:10:06;17.40;99.90
27544;DHT22;17996;51.056;3.656;2022-10-16T17:12:32;17.40;99.90
27544;DHT22;17996;51.056;3.656;2022-10-16T17:14:58;17.40;99.90
27544;DHT22;17996;51.056;3.656;2022-10-16T17:17:23;17.50;99.90
27544;DHT22;17996;51.056;3.656;2022-10-16T17:19:50;17.50;99.90
27544;DHT22;17996;51.056;3.656;2022-10-16T17:22:15;17.50;99.90
27544;DHT22;17996;51.056;3.656;2022-10-16T17:24:42;17.40;99.90
27544;DHT22;17996;51.056;3.656;2022-10-16T17:27:08;17.30;99.90
27544;DHT22;17996;51.056;3.656;2022-10-16T17:29:34;17.30;99.90
27544;DHT22;17996;51.056;3.656;2022-10-16T17:32:00;17.40;99.90
27544;DHT22;17996;51.056;3.656;2022-10-16T17:34:26;17.30;99.90
27544;DHT22;17996;51.056;3.656;2022-10-16T17:36:51;17.20;99.90
27544;DHT22;17996;51.056;3.656;2022-10-16T17:39:18;17.20;99.90
27544;DHT22;17996;51.056;3.656;2022-10-16T17:41:47;17.20;99.90
27544;DHT22;17996;51.056;3.656;2022-10-16T17:44:14;17.20;99.90